»·PEaware :: N52LM KMHV-KNYL

N52LM :: KMHV-KNYL

FLIGHT INFORMATION

Flight Status: Arrived
Operator: Privately registered:
United States
More flights under this callsign
Pilot: Laura M. (2908)
Aircraft: CESSNA 510 CITATION MUSTANG
(C510)
More flights by this aircraft type
Origin: KMHV Mojave
United States
Destination: KNYL Yuma MCAS/Yuma Intl
United States
More flights between these airports :: More routes between these airports
Route: JERID5 JERID PMD V137 PSP V137 IPL V458 BZA
File this flight plan on PilotEdge
Remarks:
Altitude:
(Current/Filed)
35,000ft
Speed:
(Current/Filed)
250kts
Departed: 02-May-23 05:56 PM
Arrived: 02-May-23 06:59 PM
Distance/Time
Traveled:
228nm/1:03
Distance/Time
To Go:
Arrived

Flight Plot

Page will automatically refresh every two minutes.

Flight plan parsing failed; only flown route is shown


Map Options




Map Legend


Flown Route
Filed Route
Departure Airport
Arrival Airport
Navaid (VOR, NDB)
Fix

Horizontal Profiles

Position Reports

Time Latitude Longitude Heading Altitude Ground
Speed
02-May-23 17:35 35.056591 -118.150072 359 2770ft 0kts
02-May-23 17:37 35.056591 -118.150072 359 2770ft 0kts
02-May-23 17:38 35.056591 -118.150072 359 2770ft 0kts
02-May-23 17:39 35.056591 -118.150072 359 2770ft 0kts
02-May-23 17:40 35.056591 -118.150072 359 2770ft 0kts
02-May-23 17:41 35.056591 -118.150072 359 2770ft 0kts
02-May-23 17:42 35.056591 -118.150072 359 2770ft 0kts
02-May-23 17:43 35.056591 -118.150072 359 2770ft 0kts
02-May-23 17:44 35.056591 -118.150072 359 2770ft 0kts
02-May-23 17:45 35.056591 -118.150072 359 2770ft 0kts
02-May-23 17:46 35.056591 -118.150072 359 2770ft 0kts
02-May-23 17:47 35.056591 -118.150072 359 2770ft 0kts
02-May-23 17:48 35.056632 -118.150073 359 2770ft 2kts
02-May-23 17:49 35.057590 -118.147564 89 2770ft 16kts
02-May-23 17:50 35.057607 -118.142837 67 2770ft 4kts
02-May-23 17:51 35.058160 -118.142636 359 2770ft 0kts
02-May-23 17:52 35.058160 -118.142636 359 2770ft 0kts
02-May-23 17:53 35.058160 -118.142636 359 2770ft 0kts
02-May-23 17:54 35.058160 -118.142636 359 2770ft 0kts
02-May-23 17:55 35.058160 -118.142636 359 2770ft 0kts
02-May-23 17:56 35.059197 -118.150374 271 2801ft 99kts
02-May-23 17:57 35.059045 -118.194729 252 5744ft 148kts
02-May-23 17:58 35.021549 -118.225050 224 8974ft 167kts
02-May-23 17:59 34.984936 -118.265114 218 11802ft 180kts
02-May-23 17:59 34.950963 -118.300120 215 13028ft 233kts
02-May-23 18:01 34.885353 -118.363127 193 12973ft 251kts
02-May-23 18:02 34.832356 -118.323121 133 13716ft 240kts
02-May-23 18:03 34.786899 -118.265239 133 15930ft 242kts
02-May-23 18:04 34.740230 -118.204797 133 17819ft 250kts
02-May-23 18:04 34.700272 -118.152912 133 19263ft 256kts
02-May-23 18:05 34.650919 -118.088859 134 20833ft 264kts
02-May-23 18:07 34.603056 -118.000711 121 22484ft 275kts
02-May-23 18:08 34.565499 -117.918895 121 23749ft 282kts
02-May-23 18:08 34.533413 -117.848957 122 24722ft 287kts
02-May-23 18:09 34.494151 -117.763434 122 25775ft 294kts
02-May-23 18:10 34.453907 -117.675923 122 26677ft 302kts
02-May-23 18:12 34.403489 -117.566760 121 26863ft 326kts
02-May-23 18:12 34.366629 -117.486888 122 27310ft 328kts
02-May-23 18:13 34.321771 -117.390131 121 27780ft 334kts
02-May-23 18:14 34.276015 -117.291589 122 28964ft 339kts
02-May-23 18:15 34.229321 -117.191393 122 29939ft 346kts
02-May-23 18:16 34.181751 -117.089488 123 30825ft 353kts
02-May-23 18:17 34.133123 -116.985193 124 31569ft 361kts
02-May-23 18:18 34.082948 -116.878304 125 32175ft 370kts
02-May-23 18:19 34.031634 -116.770017 125 32821ft 376kts
02-May-23 18:20 33.979206 -116.659412 125 33403ft 382kts
02-May-23 18:21 33.926196 -116.547752 125 33947ft 387kts
02-May-23 18:22 33.872116 -116.434863 130 34471ft 388kts
02-May-23 18:23 33.795387 -116.346418 143 34846ft 386kts
02-May-23 18:24 33.715507 -116.257423 142 34851ft 396kts
02-May-23 18:25 33.635529 -116.168416 142 34805ft 388kts
02-May-23 18:26 33.550756 -116.093413 150 34806ft 374kts
02-May-23 18:27 33.466859 -116.021145 150 34807ft 369kts
02-May-23 18:28 33.383902 -115.949875 150 34807ft 367kts
02-May-23 18:29 33.301211 -115.879010 150 34809ft 366kts
02-May-23 18:30 33.219897 -115.809367 150 34062ft 347kts
02-May-23 18:31 33.142559 -115.743781 149 30305ft 332kts
02-May-23 18:32 33.070373 -115.682205 149 27094ft 307kts
02-May-23 18:33 33.003985 -115.625779 148 24083ft 284kts
02-May-23 18:34 32.942007 -115.573579 147 21124ft 268kts
02-May-23 18:35 32.877600 -115.536849 168 18151ft 260kts
02-May-23 18:36 32.807259 -115.521513 167 15368ft 257kts
02-May-23 18:37 32.750381 -115.484581 96 12753ft 256kts
02-May-23 18:38 32.752104 -115.401061 90 10468ft 251kts
02-May-23 18:39 32.753689 -115.321120 91 10019ft 238kts
02-May-23 18:40 32.755274 -115.242488 91 10019ft 238kts
02-May-23 18:41 32.769739 -115.166676 75 8943ft 239kts
02-May-23 18:42 32.790297 -115.091466 74 6805ft 237kts
02-May-23 18:43 32.810456 -115.018118 74 4888ft 232kts
02-May-23 18:44 32.828462 -114.952982 74 4602ft 193kts
02-May-23 18:45 32.845731 -114.890043 74 4602ft 207kts
02-May-23 18:46 32.863472 -114.825406 74 4600ft 203kts
02-May-23 18:47 32.880869 -114.761809 74 4600ft 202kts
02-May-23 18:48 32.898232 -114.698200 74 4600ft 201kts
02-May-23 18:49 32.913860 -114.634589 99 4584ft 196kts
02-May-23 18:50 32.882223 -114.585235 133 3581ft 190kts
02-May-23 18:51 32.847453 -114.538656 134 3001ft 188kts
02-May-23 18:52 32.809476 -114.503605 191 2557ft 164kts
02-May-23 18:53 32.772909 -114.514958 195 1772ft 102kts
02-May-23 18:54 32.744356 -114.524551 196 1802ft 110kts
02-May-23 18:55 32.716050 -114.539094 221 1703ft 110kts
02-May-23 18:56 32.694379 -114.563408 220 1040ft 105kts
02-May-23 18:57 32.674669 -114.586027 220 538ft 96kts
02-May-23 18:58 32.659849 -114.602964 224 192ft 15kts
02-May-23 18:59 32.659950 -114.604272 279 192ft 12kts
02-May-23 19:00 32.658976 -114.608590 270 190ft 12kts
02-May-23 19:01 32.660095 -114.609881 356 192ft 0kts
02-May-23 19:02 32.660095 -114.609881 356 192ft 0kts
02-May-23 19:03 32.660095 -114.609881 356 192ft 0kts
02-May-23 19:04 32.660095 -114.609881 356 192ft 0kts

Navigation Log

Ident Type
Flight plan parsing failed, navigation log unavailable